Aérodrome :
LOGIN :

S'inscrire | Disclaimer

   EN    FR    IT 

 










Légende :    VFR   VFR Marginal   IFR   IFR Intensif   IFR Très Intensif
Visi : 
Plafond : 
>= 8 km
>= 3000ft
5 à 8 km
1000 à 3000 ft
1500m à 5 km
500 à 1000 ft
800 à 1500m
200 à 500 ft
< 800m
< 200 ft
Symboles :   Orages  Brouillard  Fortes neiges  Fortes précipitations  Vent > 20 kt
SIGMETs :   Divers  Orages  Givrage  Turbulence  Onde Orograph.  Cendres Volcan.






- Altitude de l'aérodrome : 390 ft
- Code IATA : NQY


EGHQ - Newquay

DERNIER METAR :
  • 270350Z AUTO 08006KT 9999 NCD 05/03 Q1040

METARs EXPIRÉS :
  • 270320Z AUTO 08007KT 9999 NCD 05/02 Q1040
  • 270250Z AUTO 07007KT 9999 NCD 05/02 Q1040
  • 270220Z AUTO 07007KT 9999 NCD 04/02 Q1040
  • 270150Z AUTO 08006KT 9999 NCD 05/04 Q1040
  • 270120Z AUTO 08005KT 9999 NCD 06/04 Q1040
  • 270050Z AUTO 06004KT 9999 FEW020/// 06/04 Q1041

TAF TAF EGHQ
Valide du 27 à 03h jusqu'au 27 à 12h UTC


270155Z 2703/2712 08005KT 9999 FEW040
PROB30 2706/2709 8000



MET'MAP, la Météo Aéronautique d'un coup d'oeil ! - Copyright ORBIFLY Décembre 2007 - Disclaimer

ORBIFLY MET'MAP TEAM :

Programmation & Développement : Alexandra Zaïnal
Sur une idée originale de : Baudouin d'Aumeries
Assistance à la programmation : Marc-Olivier Méhu
Soutien technique & logistique : Manuel Goepfert

Contact : metmap@orbifly.com




SOURCES & CREDITS :

   NOAA